Summerwind — WDF3461 — position and weather

sailwx.info

Track history (hours):
 
Tides and Currents Weather Stations Pressure Air Temp Water Temp Dewpoint Dewpoint Depression Visibility Wind Speed Wind Dir Waves Ship Positions

Summerwind (United States)

Ship's website: http://www.usmma.edu/waterfront

Owner: US Merchant Marine Academy, Kings Point, NY. More information available from US FCC via Universal Licensing System and Coast Guard Vessel Documentation Center.

Last reported at 2017-Aug-16 08:18 UTC. Time now 2017-Aug-22 22:32 UTC.
Position N 38°58' W 076°27'.

Length 30 m.

Type: Sailing vessel. MMSI: 367440150.

Date/timePositionNaut miles runAvg speedWind from/ knotsBaromVisibWave heightAir tempDewpointWater temp
2017-Aug-16 08:18N 38°58' W 076°27'1 3.0
2017-Aug-16 08:00N 38°57' W 076°26'3 2.3
2017-Aug-16 06:32N 38°60' W 076°23'2 6.2
2017-Aug-16 06:17N 39°01' W 076°22'20 5.6
2017-Aug-16 02:46N 39°20' W 076°12'2 5.8
2017-Aug-16 02:30N 39°21' W 076°11'3 5.9
2017-Aug-16 02:00N 39°22' W 076°08'3 6.0
2017-Aug-16 01:30N 39°24' W 076°04'3 6.1
2017-Aug-16 01:00N 39°25' W 076°01'3 6.1
2017-Aug-16 00:30N 39°28' W 075°58'4 7.5
2017-Aug-16 00:00N 39°30' W 075°55'3 6.2
2017-Aug-15 23:30N 39°32' W 075°51'3 6.5
2017-Aug-15 23:00N 39°32' W 075°47'3 6.8
2017-Aug-15 22:30N 39°33' W 075°43'3 6.4
2017-Aug-15 22:00N 39°33' W 075°39'3 6.1
2017-Aug-15 21:30N 39°34' W 075°35'2 4.3
2017-Aug-15 21:01N 39°32' W 075°32'4 7.1
2017-Aug-15 20:31N 39°29' W 075°34'4 7.3
2017-Aug-15 20:00N 39°26' W 075°32'4 7.5
2017-Aug-15 19:30N 39°23' W 075°28'4 7.5
2017-Aug-15 19:00N 39°20' W 075°25'4 7.2
2017-Aug-15 18:30N 39°17' W 075°22'3 6.7
2017-Aug-15 18:00N 39°15' W 075°19'3 6.0
2017-Aug-15 17:30N 39°12' W 075°17'4 7.1
2017-Aug-15 17:00N 39°09' W 075°15'4 6.8
2017-Aug-15 16:28N 39°07' W 075°12'3 6.2
2017-Aug-15 15:59N 39°04' W 075°10'3 6.2
2017-Aug-15 15:29N 39°01' W 075°09'35 3.9
2017-Aug-15 06:40N 39°05' W 074°25'1 6.8
2017-Aug-15 06:29N 39°06' W 074°23'3 6.2
2017-Aug-15 05:58N 39°08' W 074°20'3 6.8
2017-Aug-15 05:30N 39°10' W 074°17'4 7.1
2017-Aug-15 04:59N 39°12' W 074°13'4 8.3
2017-Aug-15 04:30N 39°15' W 074°09'4 7.9
2017-Aug-15 04:00N 39°17' W 074°06'4 7.8
2017-Aug-15 03:30N 39°20' W 074°02'4 8.4
2017-Aug-15 03:00N 39°23' W 073°58'4 7.6
2017-Aug-15 02:30N 39°26' W 073°55'3 5.7
2017-Aug-15 01:57N 39°28' W 073°52'3 5.2
2017-Aug-15 01:26N 39°30' W 073°49'5 5.4
2017-Aug-15 00:34N 39°33' W 073°45'  
2017-Aug-11 12:36N 41°29' W 071°19'0 0.0
2017-Aug-11 12:24N 41°29' W 071°19'0 0.0
2017-Aug-11 12:00N 41°29' W 071°19'134 2.9
2017-Aug-09 13:30N 39°49' W 073°16'2 3.2
2017-Aug-09 13:00N 39°49' W 073°18'98 3.4
2017-Aug-08 08:32N 39°04' W 075°11'0 7.3
2017-Aug-08 08:29N 39°04' W 075°11'4 7.5
2017-Aug-08 08:00N 39°07' W 075°13'4 8.2
2017-Aug-08 07:30N 39°11' W 075°16'4 8.6
2017-Aug-08 07:00N 39°15' W 075°19'4 8.4
2017-Aug-08 06:31N 39°18' W 075°23'4 7.9
2017-Aug-08 06:00N 39°21' W 075°26'3 6.9
2017-Aug-08 05:30N 39°23' W 075°29'3 5.7
2017-Aug-08 05:00N 39°25' W 075°31'2 4.9
2017-Aug-08 04:30N 39°28' W 075°33'2 4.7
2017-Aug-08 04:00N 39°30' W 075°34'2 4.2
2017-Aug-08 03:30N 39°32' W 075°33'2 3.5
2017-Aug-08 03:00N 39°34' W 075°33'3 5.1
2017-Aug-08 02:30N 39°33' W 075°36'3 5.7
2017-Aug-08 02:00N 39°33' W 075°40'3 5.7
2017-Aug-08 01:30N 39°32' W 075°44'3 5.9
2017-Aug-08 01:00N 39°32' W 075°48'3 6.3
2017-Aug-08 00:30N 39°32' W 075°52'4 7.9
2017-Aug-08 00:01N 39°30' W 075°56'4 7.8
2017-Aug-07 23:30N 39°27' W 075°60'3 6.9
2017-Aug-07 23:00N 39°24' W 076°02'3 6.0
2017-Aug-07 22:30N 39°23' W 076°06'3 5.9
2017-Aug-07 22:00N 39°21' W 076°09'3 5.5
2017-Aug-07 21:30N 39°20' W 076°12'  
Track history (hours):
 
Tides and Currents Weather Stations Pressure Air Temp Water Temp Dewpoint Dewpoint Depression Visibility Wind Speed Wind Dir Waves Ship Positions

Summerwind (United States)

Ship's website: http://www.usmma.edu/waterfront

Owner: US Merchant Marine Academy, Kings Point, NY. More information available from US FCC via Universal Licensing System and Coast Guard Vessel Documentation Center.

Last reported at 2017-Aug-16 08:18 UTC. Time now 2017-Aug-22 22:32 UTC.
Position N 38°58' W 076°27'.

Length 30 m.

Type: Sailing vessel. MMSI: 367440150.

Date/timePositionNaut miles runAvg speedWind from/ knotsBaromVisibWave heightAir tempDewpointWater temp
2017-Aug-16 08:18N 38°58' W 076°27'1 3.0
2017-Aug-16 08:00N 38°57' W 076°26'3 2.3
2017-Aug-16 06:32N 38°60' W 076°23'2 6.2
2017-Aug-16 06:17N 39°01' W 076°22'20 5.6
2017-Aug-16 02:46N 39°20' W 076°12'2 5.8
2017-Aug-16 02:30N 39°21' W 076°11'3 5.9
2017-Aug-16 02:00N 39°22' W 076°08'3 6.0
2017-Aug-16 01:30N 39°24' W 076°04'3 6.1
2017-Aug-16 01:00N 39°25' W 076°01'3 6.1
2017-Aug-16 00:30N 39°28' W 075°58'4 7.5
2017-Aug-16 00:00N 39°30' W 075°55'3 6.2
2017-Aug-15 23:30N 39°32' W 075°51'3 6.5
2017-Aug-15 23:00N 39°32' W 075°47'3 6.8
2017-Aug-15 22:30N 39°33' W 075°43'3 6.4
2017-Aug-15 22:00N 39°33' W 075°39'3 6.1
2017-Aug-15 21:30N 39°34' W 075°35'2 4.3
2017-Aug-15 21:01N 39°32' W 075°32'4 7.1
2017-Aug-15 20:31N 39°29' W 075°34'4 7.3
2017-Aug-15 20:00N 39°26' W 075°32'4 7.5
2017-Aug-15 19:30N 39°23' W 075°28'4 7.5
2017-Aug-15 19:00N 39°20' W 075°25'4 7.2
2017-Aug-15 18:30N 39°17' W 075°22'3 6.7
2017-Aug-15 18:00N 39°15' W 075°19'3 6.0
2017-Aug-15 17:30N 39°12' W 075°17'4 7.1
2017-Aug-15 17:00N 39°09' W 075°15'4 6.8
2017-Aug-15 16:28N 39°07' W 075°12'3 6.2
2017-Aug-15 15:59N 39°04' W 075°10'3 6.2
2017-Aug-15 15:29N 39°01' W 075°09'35 3.9
2017-Aug-15 06:40N 39°05' W 074°25'1 6.8
2017-Aug-15 06:29N 39°06' W 074°23'3 6.2
2017-Aug-15 05:58N 39°08' W 074°20'3 6.8
2017-Aug-15 05:30N 39°10' W 074°17'4 7.1
2017-Aug-15 04:59N 39°12' W 074°13'4 8.3
2017-Aug-15 04:30N 39°15' W 074°09'4 7.9
2017-Aug-15 04:00N 39°17' W 074°06'4 7.8
2017-Aug-15 03:30N 39°20' W 074°02'4 8.4
2017-Aug-15 03:00N 39°23' W 073°58'4 7.6
2017-Aug-15 02:30N 39°26' W 073°55'3 5.7
2017-Aug-15 01:57N 39°28' W 073°52'3 5.2
2017-Aug-15 01:26N 39°30' W 073°49'5 5.4
2017-Aug-15 00:34N 39°33' W 073°45'  
2017-Aug-11 12:36N 41°29' W 071°19'0 0.0
2017-Aug-11 12:24N 41°29' W 071°19'0 0.0
2017-Aug-11 12:00N 41°29' W 071°19'134 2.9
2017-Aug-09 13:30N 39°49' W 073°16'2 3.2
2017-Aug-09 13:00N 39°49' W 073°18'98 3.4
2017-Aug-08 08:32N 39°04' W 075°11'0 7.3
2017-Aug-08 08:29N 39°04' W 075°11'4 7.5
2017-Aug-08 08:00N 39°07' W 075°13'4 8.2
2017-Aug-08 07:30N 39°11' W 075°16'4 8.6
2017-Aug-08 07:00N 39°15' W 075°19'4 8.4
2017-Aug-08 06:31N 39°18' W 075°23'4 7.9
2017-Aug-08 06:00N 39°21' W 075°26'3 6.9
2017-Aug-08 05:30N 39°23' W 075°29'3 5.7
2017-Aug-08 05:00N 39°25' W 075°31'2 4.9
2017-Aug-08 04:30N 39°28' W 075°33'2 4.7
2017-Aug-08 04:00N 39°30' W 075°34'2 4.2
2017-Aug-08 03:30N 39°32' W 075°33'2 3.5
2017-Aug-08 03:00N 39°34' W 075°33'3 5.1
2017-Aug-08 02:30N 39°33' W 075°36'3 5.7
2017-Aug-08 02:00N 39°33' W 075°40'3 5.7
2017-Aug-08 01:30N 39°32' W 075°44'3 5.9
2017-Aug-08 01:00N 39°32' W 075°48'3 6.3
2017-Aug-08 00:30N 39°32' W 075°52'4 7.9
2017-Aug-08 00:01N 39°30' W 075°56'4 7.8
2017-Aug-07 23:30N 39°27' W 075°60'3 6.9
2017-Aug-07 23:00N 39°24' W 076°02'3 6.0
2017-Aug-07 22:30N 39°23' W 076°06'3 5.9
2017-Aug-07 22:00N 39°21' W 076°09'3 5.5
2017-Aug-07 21:30N 39°20' W 076°12'  

Dump ship's entire track history